Time;durP1;ratioP1;P1;durP2;ratioP2;P2;SDS_P1;SDS_P2;PMS_P1;PMS_P2;Temp;Humidity;BMP_temperature;BMP_pressure;BME280_temperature;BME280_humidity;BME280_pressure;Samples;Min_cycle;Max_cycle;Signal;HPM_P1;HPM_P2
2021/03/05 00:00:25;;;;;;;7.17;4.80;;;;;;;;;;5093587;28;20441;-67
2021/03/05 00:02:51;;;;;;;6.10;4.63;;;9.20;1.00;;;;;;5094176;28;20483;-67
2021/03/05 00:05:18;;;;;;;5.87;5.10;;;8.90;99.90;;;;;;5094664;28;20445;-67
2021/03/05 00:07:45;;;;;;;12.30;8.00;;;9.00;99.90;;;;;;5094850;28;20456;-67
2021/03/05 00:10:15;;;;;;;10.80;8.23;;;8.60;56.20;;;;;;5094627;28;20451;-67
2021/03/05 00:12:41;;;;;;;9.57;8.00;;;8.40;99.90;;;;;;5094489;28;20805;-66
2021/03/05 00:15:10;;;;;;;11.30;8.60;;;8.10;99.90;;;;;;5092993;28;20455;-67
2021/03/05 00:17:38;;;;;;;11.73;8.33;;;7.90;99.90;;;;;;5093839;28;20486;-67
2021/03/05 00:20:08;;;;;;;11.83;8.47;;;7.90;99.90;;;;;;5093009;28;20480;-67
2021/03/05 00:22:35;;;;;;;15.07;10.47;;;7.60;99.90;;;;;;5093928;28;20448;-67
2021/03/05 00:25:01;;;;;;;15.07;9.90;;;7.60;99.90;;;;;;5092766;28;20859;-66
2021/03/05 00:27:27;;;;;;;16.13;12.40;;;7.60;99.90;;;;;;5093388;28;20444;-67
2021/03/05 00:29:54;;;;;;;14.93;10.43;;;7.50;99.90;;;;;;5092537;28;20531;-66
2021/03/05 00:32:20;;;;;;;17.50;11.90;;;7.20;99.90;;;;;;5093869;28;20460;-65
2021/03/05 00:34:47;;;;;;;19.67;12.40;;;7.10;99.90;;;;;;5092843;28;20501;-66
2021/03/05 00:37:14;;;;;;;19.70;12.53;;;7.10;99.90;;;;;;5093692;28;20479;-65
2021/03/05 00:39:40;;;;;;;20.63;13.40;;;7.60;99.90;;;;;;5093572;28;20453;-66
2021/03/05 00:42:07;;;;;;;21.87;13.50;;;7.00;99.90;;;;;;5093063;28;20491;-66
2021/03/05 00:44:34;;;;;;;19.43;14.63;;;7.20;99.90;;;;;;5093035;28;20448;-66
2021/03/05 00:47:00;;;;;;;20.57;16.13;;;7.20;99.90;;;;;;5092966;28;20475;-67
2021/03/05 00:49:27;;;;;;;20.00;13.20;;;7.20;99.90;;;;;;5092680;28;20445;-65
2021/03/05 00:51:54;;;;;;;18.10;12.37;;;6.90;99.90;;;;;;5092715;28;20448;-66
2021/03/05 00:54:21;;;;;;;21.57;14.17;;;6.70;99.90;;;;;;5093553;28;20440;-66
2021/03/05 00:56:47;;;;;;;19.80;15.20;;;6.70;99.90;;;;;;5091804;28;20530;-66
2021/03/05 00:59:14;;;;;;;22.10;14.10;;;6.70;99.90;;;;;;5093486;28;20516;-66
2021/03/05 01:01:40;;;;;;;20.50;14.03;;;6.40;99.90;;;;;;5093662;28;20480;-66
2021/03/05 01:04:07;;;;;;;24.20;15.90;;;6.30;99.90;;;;;;5092419;28;20455;-66
2021/03/05 01:06:33;;;;;;;22.60;14.17;;;6.00;99.90;;;;;;5092753;28;21019;-66
2021/03/05 01:09:00;;;;;;;24.13;16.50;;;5.90;99.90;;;;;;5092070;28;20466;-67
2021/03/05 01:11:27;;;;;;;26.43;16.70;;;6.00;99.90;;;;;;5092874;28;20925;-65
2021/03/05 01:13:53;;;;;;;25.77;16.67;;;5.90;99.90;;;;;;5092574;28;20452;-66
2021/03/05 01:16:19;;;;;;;30.73;17.60;;;6.20;99.90;;;;;;5093176;28;20868;-66
2021/03/05 01:18:46;;;;;;;25.87;15.93;;;6.20;99.90;;;;;;5092332;28;20581;-66
2021/03/05 01:21:12;;;;;;;31.77;17.00;;;6.20;99.90;;;;;;5092031;28;20475;-66
2021/03/05 01:23:38;;;;;;;28.07;18.10;;;6.00;99.90;;;;;;5092548;28;20448;-66
2021/03/05 01:26:08;;;;;;;21.27;15.60;;;6.00;99.90;;;;;;5091393;28;20760;-66
2021/03/05 01:28:34;;;;;;;26.20;14.70;;;5.90;99.90;;;;;;5091609;28;20554;-66
2021/03/05 01:31:01;;;;;;;26.37;15.67;;;5.60;99.90;;;;;;5091747;28;20452;-66
2021/03/05 01:33:27;;;;;;;28.53;15.73;;;5.60;99.90;;;;;;5092218;28;20446;-66
2021/03/05 01:35:53;;;;;;;28.17;16.73;;;5.90;99.90;;;;;;5090775;28;20456;-66
2021/03/05 01:38:20;;;;;;;26.33;16.73;;;6.00;99.90;;;;;;5093701;28;20497;-66
2021/03/05 01:40:48;;;;;;;29.77;16.97;;;6.20;99.90;;;;;;5091475;28;20452;-67
2021/03/05 01:43:17;;;;;;;30.53;17.33;;;6.00;99.90;;;;;;5092096;28;20474;-66
2021/03/05 01:45:45;;;;;;;27.23;16.73;;;5.70;99.90;;;;;;5092462;28;20525;-66
2021/03/05 01:48:14;;;;;;;26.83;15.23;;;5.70;99.90;;;;;;5092390;28;20454;-66
2021/03/05 01:50:48;;;;;;;27.83;16.10;;;6.00;99.90;;;;;;5092610;28;20483;-66
2021/03/05 01:53:15;;;;;;;26.23;15.50;;;6.00;99.90;;;;;;5092556;28;20802;-66
2021/03/05 01:55:41;;;;;;;23.97;16.50;;;5.90;99.90;;;;;;5092180;28;20461;-66
2021/03/05 01:58:32;;;;;;;28.80;15.70;;;6.10;99.90;;;;;;5091182;28;20475;-66
2021/03/05 02:01:01;;;;;;;25.97;15.00;;;5.80;99.90;;;;;;5091337;28;20447;-66
2021/03/05 02:03:30;;;;;;;27.93;16.50;;;5.50;99.90;;;;;;5091805;28;20471;-66
2021/03/05 02:05:57;;;;;;;32.50;16.73;;;5.90;99.90;;;;;;5091291;28;20999;-66
2021/03/05 02:08:23;;;;;;;30.90;16.50;;;5.60;99.90;;;;;;5090733;28;20451;-66
2021/03/05 02:10:50;;;;;;;30.40;16.30;;;5.90;99.90;;;;;;5090915;28;20451;-66
2021/03/05 02:13:16;;;;;;;30.87;17.60;;;5.60;99.90;;;;;;5091710;28;20470;-66
2021/03/05 02:15:44;;;;;;;32.00;16.70;;;5.80;99.90;;;;;;5091886;28;20449;-66
2021/03/05 02:18:19;;;;;;;29.33;16.43;;;5.70;99.90;;;;;;5091827;28;20829;-66
2021/03/05 02:21:02;;;;;;;31.20;17.77;;;5.60;99.90;;;;;;5090800;28;20494;-67
2021/03/05 02:23:48;;;;;;;25.23;15.40;;;5.70;99.90;;;;;;5081840;28;20442;-66
2021/03/05 02:26:52;;;;;;;29.93;16.83;;;5.50;99.90;;;;;;5091880;28;20451;-66
2021/03/05 02:29:51;;;;;;;32.40;19.10;;;5.60;99.90;;;;;;5091582;28;20443;-66
2021/03/05 02:32:22;;;;;;;29.30;15.10;;;5.60;99.90;;;;;;5088308;28;20444;-66
2021/03/05 02:34:51;;;;;;;29.33;15.70;;;5.50;99.90;;;;;;5091091;28;20438;-67
2021/03/05 02:37:18;;;;;;;32.97;17.40;;;5.40;99.90;;;;;;5091662;28;20983;-66
2021/03/05 02:39:52;;;;;;;25.37;14.70;;;5.70;99.90;;;;;;5091670;28;20504;-67
2021/03/05 02:42:25;;;;;;;25.20;16.20;;;5.50;99.90;;;;;;5091528;28;20439;-66
2021/03/05 02:44:55;;;;;;;27.63;16.10;;;5.70;99.90;;;;;;5091248;28;20437;-67
2021/03/05 02:47:24;;;;;;;23.97;14.60;;;5.70;99.90;;;;;;5091370;28;20451;-66
2021/03/05 02:49:54;;;;;;;25.77;13.90;;;5.80;99.90;;;;;;5090618;28;20456;-66
2021/03/05 02:52:22;;;;;;;25.07;15.13;;;5.80;99.90;;;;;;5091368;28;20452;-67
2021/03/05 02:54:52;;;;;;;32.93;15.73;;;5.80;99.90;;;;;;5090630;28;20470;-66
2021/03/05 02:57:20;;;;;;;24.37;14.90;;;5.90;99.90;;;;;;5090612;28;20574;-66
2021/03/05 02:59:47;;;;;;;26.40;15.10;;;5.50;99.90;;;;;;5090723;28;20456;-67
2021/03/05 03:02:15;;;;;;;30.13;14.73;;;5.60;99.90;;;;;;5091375;28;20457;-66
2021/03/05 03:04:44;;;;;;;20.70;14.20;;;5.30;99.90;;;;;;5091578;28;20463;-66
2021/03/05 03:07:11;;;;;;;23.33;13.30;;;5.60;99.90;;;;;;5091181;28;21065;-66
2021/03/05 03:09:38;;;;;;;23.27;15.13;;;5.60;99.90;;;;;;5090577;28;20456;-66
2021/03/05 03:12:08;;;;;;;21.17;12.77;;;5.50;99.90;;;;;;5090185;28;20509;-66
2021/03/05 03:14:37;;;;;;;24.97;14.30;;;5.60;99.90;;;;;;5091318;28;20459;-66
2021/03/05 03:17:05;;;;;;;25.30;13.43;;;5.80;99.90;;;;;;5090376;28;20478;-66
2021/03/05 03:19:32;;;;;;;25.23;13.70;;;5.30;99.90;;;;;;5090244;28;20440;-66
2021/03/05 03:22:00;;;;;;;23.87;12.93;;;5.50;99.90;;;;;;5090593;28;20442;-66
2021/03/05 03:24:26;;;;;;;22.70;14.20;;;5.50;99.90;;;;;;5090947;28;20447;-66
2021/03/05 03:26:53;;;;;;;29.20;16.37;;;5.70;99.90;;;;;;5090567;28;20854;-66
2021/03/05 03:29:19;;;;;;;23.23;15.20;;;5.70;99.90;;;;;;5090883;28;20806;-66
2021/03/05 03:31:46;;;;;;;30.40;15.20;;;5.60;99.90;;;;;;5090847;28;20500;-67
2021/03/05 03:34:14;;;;;;;24.50;14.20;;;5.60;99.90;;;;;;5090842;28;20951;-66
2021/03/05 03:36:41;;;;;;;24.37;13.07;;;5.80;99.90;;;;;;5091000;28;20920;-66
2021/03/05 03:39:10;;;;;;;23.17;14.50;;;5.60;99.90;;;;;;5089965;28;20830;-66
2021/03/05 03:41:38;;;;;;;24.00;13.97;;;5.60;99.90;;;;;;5090245;28;20535;-66
2021/03/05 03:44:06;;;;;;;24.30;14.67;;;5.40;99.90;;;;;;5090170;28;20456;-66
2021/03/05 03:46:33;;;;;;;22.50;15.00;;;5.40;99.90;;;;;;5091135;28;20445;-66
2021/03/05 03:49:06;;;;;;;24.57;14.00;;;5.60;99.90;;;;;;5089772;28;20459;-66
2021/03/05 03:51:37;;;;;;;25.50;14.07;;;5.60;99.90;;;;;;5090720;28;20968;-66
2021/03/05 03:54:05;;;;;;;21.47;13.30;;;5.40;99.90;;;;;;5090069;28;20538;-66
2021/03/05 03:56:35;;;;;;;25.13;16.23;;;5.50;99.90;;;;;;5090723;28;20454;-66
2021/03/05 03:59:02;;;;;;;21.07;13.90;;;5.60;99.90;;;;;;5090388;28;20456;-66
2021/03/05 04:01:30;;;;;;;19.33;13.50;;;5.50;99.90;;;;;;5094673;28;20805;-66
2021/03/05 04:03:58;;;;;;;22.53;12.60;;;5.20;99.90;;;;;;5094169;28;20465;-66
2021/03/05 04:06:26;;;;;;;18.90;11.77;;;5.30;99.90;;;;;;5094570;28;20538;-66
2021/03/05 04:08:54;;;;;;;17.00;12.23;;;5.30;99.90;;;;;;5095291;28;20482;-66
2021/03/05 04:11:22;;;;;;;16.20;11.87;;;5.40;99.90;;;;;;5095241;28;20451;-66
2021/03/05 04:13:50;;;;;;;17.60;10.77;;;5.20;99.90;;;;;;5094847;28;20447;-67
2021/03/05 04:16:16;;;;;;;16.80;11.50;;;5.20;99.90;;;;;;5094471;28;20570;-66
2021/03/05 04:18:43;;;;;;;15.83;11.00;;;5.20;99.90;;;;;;5093843;28;20579;-66
2021/03/05 04:21:16;;;;;;;14.27;11.47;;;5.20;99.90;;;;;;5093415;28;20484;-66
2021/03/05 04:23:42;;;;;;;15.13;9.90;;;5.10;99.90;;;;;;5094319;28;20444;-66
2021/03/05 04:26:09;;;;;;;16.30;10.57;;;4.90;99.90;;;;;;5093401;28;20449;-66
2021/03/05 04:28:35;;;;;;;16.40;10.63;;;5.20;99.90;;;;;;5094011;28;20567;-66
2021/03/05 04:31:02;;;;;;;11.87;9.33;;;5.10;99.90;;;;;;5093048;28;21065;-66
2021/03/05 04:33:29;;;;;;;15.73;10.30;;;4.80;99.90;;;;;;5094088;28;20445;-66
2021/03/05 04:35:55;;;;;;;15.10;10.57;;;4.90;99.90;;;;;;5092990;28;20450;-66
2021/03/05 04:38:22;;;;;;;20.83;12.03;;;4.80;99.90;;;;;;5093324;28;20832;-66
2021/03/05 04:40:48;;;;;;;15.77;11.10;;;5.10;99.90;;;;;;5092490;28;20506;-67
2021/03/05 04:43:14;;;;;;;16.80;11.83;;;5.00;99.90;;;;;;5094172;28;20535;-67
2021/03/05 04:45:41;;;;;;;16.63;10.43;;;5.30;99.90;;;;;;5093707;28;20450;-67
2021/03/05 04:48:09;;;;;;;14.80;10.13;;;5.40;99.90;;;;;;5093000;28;20532;-66
2021/03/05 04:50:36;;;;;;;14.00;9.70;;;5.20;99.90;;;;;;5093571;28;20454;-66
2021/03/05 04:53:03;;;;;;;15.27;9.90;;;5.40;99.90;;;;;;5092797;28;20534;-66
2021/03/05 04:55:29;;;;;;;12.90;9.30;;;5.10;99.90;;;;;;5093491;28;20545;-66
2021/03/05 04:57:55;;;;;;;15.77;11.03;;;5.20;99.90;;;;;;5091953;28;20483;-67
2021/03/05 05:00:22;;;;;;;15.53;10.33;;;5.40;99.90;;;;;;5093314;28;20450;-67
2021/03/05 05:02:48;;;;;;;13.03;9.37;;;5.40;99.90;;;;;;5092608;28;20483;-67
2021/03/05 05:05:16;;;;;;;15.20;10.63;;;5.50;99.90;;;;;;5093073;28;20448;-67
2021/03/05 05:07:42;;;;;;;14.87;9.53;;;5.50;99.90;;;;;;5093569;28;20447;-67
2021/03/05 05:10:10;;;;;;;17.63;10.17;;;5.50;99.90;;;;;;5092076;28;20512;-67
2021/03/05 05:12:37;;;;;;;12.60;9.07;;;5.50;99.90;;;;;;5093542;28;20454;-67
2021/03/05 05:15:04;;;;;;;13.60;9.73;;;5.40;99.90;;;;;;5092220;28;20445;-67
2021/03/05 05:17:30;;;;;;;13.33;8.80;;;5.40;99.90;;;;;;5092887;28;20479;-67
2021/03/05 05:19:57;;;;;;;15.07;9.77;;;5.50;99.90;;;;;;5092526;28;20875;-67
2021/03/05 05:22:24;;;;;;;12.93;9.00;;;5.40;99.90;;;;;;5092980;28;20530;-66
2021/03/05 05:24:51;;;;;;;13.40;10.00;;;5.50;99.90;;;;;;5092740;28;20475;-67
2021/03/05 05:27:17;;;;;;;14.40;9.73;;;5.70;99.90;;;;;;5091976;28;20463;-67
2021/03/05 05:29:43;;;;;;;11.77;8.20;;;5.70;99.90;;;;;;5092817;28;20501;-66
2021/03/05 05:32:10;;;;;;;13.00;8.93;;;5.70;99.90;;;;;;5093076;28;20479;-66
2021/03/05 05:34:36;;;;;;;18.43;10.70;;;5.40;99.90;;;;;;5093042;28;20503;-67
2021/03/05 05:37:02;;;;;;;10.57;7.77;;;5.70;99.90;;;;;;5091979;28;21011;-67
2021/03/05 05:39:30;;;;;;;13.50;9.10;;;5.60;99.90;;;;;;5092940;28;20463;-66
2021/03/05 05:41:57;;;;;;;14.20;8.30;;;5.40;99.90;;;;;;5092287;28;20525;-67
2021/03/05 05:44:23;;;;;;;14.27;9.00;;;5.40;99.90;;;;;;5093120;28;20461;-67
2021/03/05 05:46:50;;;;;;;16.27;9.77;;;;;;;;;;5092726;28;20798;-66
2021/03/05 05:49:19;;;;;;;12.50;8.77;;;5.30;99.90;;;;;;5095111;28;20443;-69
2021/03/05 05:51:47;;;;;;;14.10;9.33;;;5.10;99.90;;;;;;5096249;28;20466;-70
2021/03/05 05:54:20;;;;;;;13.77;9.60;;;5.10;99.90;;;;;;5092759;28;20931;-69
2021/03/05 05:56:48;;;;;;;14.30;9.50;;;5.40;99.90;;;;;;5091708;28;20950;-70
2021/03/05 05:59:14;;;;;;;13.93;9.00;;;5.40;99.90;;;;;;5092515;28;20447;-71
2021/03/05 06:01:41;;;;;;;14.37;9.40;;;5.50;99.90;;;;;;5093034;28;20447;-71
2021/03/05 06:04:08;;;;;;;11.80;7.60;;;5.20;99.90;;;;;;5091666;28;20463;-68
2021/03/05 06:06:37;;;;;;;15.80;9.63;;;5.00;99.90;;;;;;5092338;28;20881;-69
2021/03/05 06:09:05;;;;;;;16.47;9.80;;;5.30;99.90;;;;;;5092028;28;20545;-72
2021/03/05 06:11:32;;;;;;;14.63;9.50;;;5.40;99.90;;;;;;5087685;28;20490;-69
2021/03/05 06:14:02;;;;;;;16.30;9.20;;;5.40;99.90;;;;;;5089426;28;20967;-69
2021/03/05 06:16:28;;;;;;;17.17;10.50;;;5.40;99.90;;;;;;5089198;28;20542;-69
2021/03/05 06:18:54;;;;;;;14.87;10.37;;;5.60;99.90;;;;;;5089354;28;20457;-69
2021/03/05 06:21:36;;;;;;;15.30;9.20;;;5.50;99.90;;;;;;5089318;28;20974;-69
2021/03/05 06:24:04;;;;;;;17.03;10.57;;;5.60;99.90;;;;;;5088210;28;20442;-69
2021/03/05 06:26:46;;;;;;;16.00;10.80;;;5.50;99.90;;;;;;5089836;28;20454;-69
2021/03/05 06:29:13;;;;;;;13.67;9.07;;;5.50;99.90;;;;;;5088745;28;20469;-69
2021/03/05 06:31:39;;;;;;;16.47;10.00;;;5.40;99.90;;;;;;5089837;28;20450;-68
2021/03/05 06:34:06;;;;;;;18.87;11.00;;;5.20;99.90;;;;;;5088987;28;20475;-69
2021/03/05 06:36:32;;;;;;;14.73;9.43;;;5.00;99.90;;;;;;5089710;28;20454;-69
2021/03/05 06:38:59;;;;;;;16.63;10.20;;;5.30;99.90;;;;;;5093805;28;20487;-70
2021/03/05 06:41:27;;;;;;;14.60;8.90;;;5.40;99.90;;;;;;5095598;28;20468;-70
2021/03/05 06:43:54;;;;;;;14.97;8.20;;;5.50;99.90;;;;;;5089591;28;20439;-69
2021/03/05 06:46:33;;;;;;;16.37;8.87;;;5.40;99.90;;;;;;5091301;28;20538;-69
2021/03/05 06:49:01;;;;;;;17.47;10.10;;;5.30;94.60;;;;;;5089769;28;20526;-69
2021/03/05 06:51:27;;;;;;;17.43;12.13;;;5.30;99.90;;;;;;5090992;28;20455;-69
2021/03/05 06:54:05;;;;;;;18.17;10.87;;;5.40;99.90;;;;;;5090560;28;20533;-70
2021/03/05 06:56:33;;;;;;;12.93;9.20;;;5.60;99.90;;;;;;5090257;28;20527;-69
2021/03/05 06:59:00;;;;;;;13.63;9.17;;;5.40;99.90;;;;;;5089489;28;20441;-69
2021/03/05 07:01:27;;;;;;;20.17;9.57;;;5.40;99.90;;;;;;5090889;28;20534;-69
2021/03/05 07:04:09;;;;;;;15.33;9.10;;;5.50;99.90;;;;;;5089782;28;20454;-70
2021/03/05 07:06:35;;;;;;;18.20;10.40;;;5.30;99.90;;;;;;5090605;28;20563;-70
2021/03/05 07:09:04;;;;;;;15.03;8.80;;;5.20;99.90;;;;;;5090011;28;20546;-69
2021/03/05 07:11:43;;;;;;;13.83;9.73;;;5.70;99.90;;;;;;5090837;28;20466;-69
2021/03/05 07:14:12;;;;;;;17.50;9.70;;;5.40;99.90;;;;;;5089930;28;20534;-69
2021/03/05 07:16:44;;;;;;;16.73;10.13;;;5.50;99.90;;;;;;5090808;28;20453;-69
2021/03/05 07:19:13;;;;;;;16.97;10.27;;;5.60;99.90;;;;;;5087803;28;20454;-69
2021/03/05 07:21:44;;;;;;;17.17;9.00;;;5.90;99.90;;;;;;5089554;28;20849;-69
2021/03/05 07:24:13;;;;;;;15.53;9.77;;;5.90;52.70;;;;;;5090601;28;20891;-69
2021/03/05 07:26:44;;;;;;;13.87;10.10;;;6.50;6.80;;;;;;5089032;28;20443;-70
2021/03/05 07:29:18;;;;;;;19.10;10.50;;;5.90;99.90;;;;;;5089561;28;20462;-70
2021/03/05 07:31:45;;;;;;;14.63;8.80;;;5.80;1.00;;;;;;5091710;28;20492;-69
2021/03/05 07:34:18;;;;;;;11.57;8.07;;;5.80;39.80;;;;;;5093226;28;20448;-69
2021/03/05 07:36:48;;;;;;;16.20;9.53;;;5.60;1.00;;;;;;5097841;28;20890;-69
2021/03/05 07:39:23;;;;;;;16.17;9.30;;;5.70;99.90;;;;;;5092397;28;20466;-70
2021/03/05 07:41:52;;;;;;;12.70;8.83;;;5.80;99.90;;;;;;5091299;28;20443;-69
2021/03/05 07:44:19;;;;;;;13.47;8.47;;;5.90;99.90;;;;;;5094119;28;20809;-70
2021/03/05 07:46:46;;;;;;;15.00;9.53;;;5.80;33.50;;;;;;5094380;28;20487;-71
2021/03/05 07:49:13;;;;;;;15.03;9.87;;;5.50;1.00;;;;;;5094053;28;20478;-70
2021/03/05 07:51:42;;;;;;;16.30;9.73;;;5.40;99.90;;;;;;5094326;28;20453;-70
2021/03/05 07:54:08;;;;;;;16.90;9.00;;;5.50;99.90;;;;;;5092866;28;20458;-70
2021/03/05 07:56:43;;;;;;;17.87;10.07;;;5.60;49.70;;;;;;5093047;28;20480;-69
2021/03/05 07:59:09;;;;;;;18.43;9.97;;;5.50;23.10;;;;;;5090760;28;20498;-69
2021/03/05 08:01:59;;;;;;;15.10;9.53;;;5.50;99.90;;;;;;5093713;28;20533;-69
2021/03/05 08:04:56;;;;;;;17.20;8.77;;;5.40;99.90;;;;;;5092913;28;20462;-69
2021/03/05 08:07:25;;;;;;;17.10;9.50;;;5.60;99.90;;;;;;5087039;28;20475;-69
2021/03/05 08:09:51;;;;;;;13.53;8.70;;;5.50;99.90;;;;;;5092717;28;20455;-69
2021/03/05 08:12:48;;;;;;;16.43;9.87;;;5.60;1.00;;;;;;5093256;28;20474;-69
2021/03/05 08:15:24;;;;;;;16.47;8.77;;;5.70;82.70;;;;;;5094063;28;20454;-68
2021/03/05 08:17:52;;;;;;;16.90;8.97;;;5.70;1.00;;;;;;5089090;28;20842;-68
2021/03/05 08:20:52;;;;;;;13.33;9.00;;;5.60;1.00;;;;;;5091346;28;20510;-68
2021/03/05 08:23:20;;;;;;;17.37;9.60;;;5.90;99.90;;;;;;5091408;28;20450;-68
2021/03/05 08:25:54;;;;;;;18.90;10.13;;;5.80;1.00;;;;;;5090970;28;20450;-68
2021/03/05 08:28:42;;;;;;;14.57;9.10;;;5.90;1.00;;;;;;5091721;28;20517;-69
2021/03/05 08:31:34;;;;;;;13.20;8.27;;;5.80;1.00;;;;;;5090979;28;20456;-69
2021/03/05 08:34:26;;;;;;;16.10;9.87;;;5.80;1.00;;;;;;5091178;28;20455;-70
2021/03/05 08:36:53;;;;;;;12.60;8.23;;;5.70;1.00;;;;;;5091114;28;20451;-70
2021/03/05 08:39:28;;;;;;;14.30;8.37;;;5.90;1.00;;;;;;5092145;28;20459;-70
2021/03/05 08:42:32;;;;;;;13.77;8.80;;;6.00;1.00;;;;;;5091386;28;20518;-70
2021/03/05 08:45:13;;;;;;;17.73;8.67;;;5.90;1.00;;;;;;5092596;28;20455;-70
2021/03/05 08:47:41;;;;;;;16.67;9.47;;;5.90;1.00;;;;;;5093387;28;20471;-69
2021/03/05 08:50:10;;;;;;;15.00;9.50;;;5.90;1.00;;;;;;5092626;28;20908;-70
2021/03/05 08:52:38;;;;;;;13.27;8.30;;;5.90;1.00;;;;;;5093097;28;20448;-70
2021/03/05 08:55:07;;;;;;;14.43;8.17;;;5.90;1.00;;;;;;5092593;28;21247;-70
2021/03/05 08:57:45;;;;;;;12.73;8.27;;;6.00;1.00;;;;;;5091208;28;20952;-71
2021/03/05 09:00:15;;;;;;;12.37;7.43;;;5.90;1.00;;;;;;5092652;28;20442;-69
2021/03/05 09:02:43;;;;;;;12.87;8.43;;;5.70;1.00;;;;;;5090825;28;20456;-69
2021/03/05 09:05:12;;;;;;;10.33;7.40;;;6.00;1.00;;;;;;5092426;28;20461;-69
2021/03/05 09:07:50;;;;;;;12.87;7.63;;;5.80;1.00;;;;;;5092610;28;20456;-69
2021/03/05 09:10:18;;;;;;;12.40;6.80;;;5.50;1.00;;;;;;5084365;28;20958;-69
2021/03/05 09:12:57;;;;;;;15.17;9.00;;;5.50;99.90;;;;;;5092322;28;20457;-69
2021/03/05 09:15:28;;;;;;;15.00;7.80;;;5.60;1.00;;;;;;5099008;28;20464;-68
2021/03/05 09:17:58;;;;;;;14.30;7.70;;;5.50;1.00;;;;;;5094251;28;20733;-69
2021/03/05 09:20:35;;;;;;;14.50;9.10;;;5.60;1.00;;;;;;5092839;28;20495;-69
2021/03/05 09:23:17;;;;;;;12.50;7.97;;;5.70;1.00;;;;;;5098820;28;20772;-71
2021/03/05 09:25:49;;;;;;;12.93;7.60;;;5.80;1.00;;;;;;5091548;28;20487;-69
2021/03/05 09:28:16;;;;;;;11.93;8.60;;;5.90;1.00;;;;;;5091056;28;20509;-70
2021/03/05 09:30:48;;;;;;;13.10;7.20;;;5.70;1.00;;;;;;5092431;28;20531;-69
2021/03/05 09:33:14;;;;;;;13.13;8.20;;;5.90;1.00;;;;;;5092810;28;20502;-69
2021/03/05 09:35:41;;;;;;;14.83;8.60;;;6.00;1.00;;;;;;5092251;28;20944;-69
2021/03/05 09:38:07;;;;;;;11.23;7.00;;;6.10;1.00;;;;;;5091374;28;20574;-70
2021/03/05 09:40:35;;;;;;;11.43;7.57;;;6.00;1.00;;;;;;5091906;28;20452;-70
2021/03/05 09:43:03;;;;;;;13.93;8.67;;;6.30;1.00;;;;;;5091026;28;20873;-71
2021/03/05 09:45:40;;;;;;;11.63;8.10;;;6.20;77.20;;;;;;5092055;28;20527;-70
2021/03/05 09:48:09;;;;;;;11.40;7.40;;;6.30;1.00;;;;;;5090788;28;20451;-69
2021/03/05 09:50:37;;;;;;;13.93;7.30;;;6.30;6.50;;;;;;5091764;28;20453;-69
2021/03/05 09:53:24;;;;;;;14.13;7.10;;;6.60;1.00;;;;;;5089143;28;20993;-69
2021/03/05 09:55:52;;;;;;;13.20;8.77;;;6.80;99.90;;;;;;5092261;28;20444;-70
2021/03/05 09:58:19;;;;;;;14.07;8.13;;;6.50;1.00;;;;;;5091330;28;20567;-69
2021/03/05 10:00:47;;;;;;;12.70;7.70;;;6.50;99.90;;;;;;5091899;28;20472;-70
2021/03/05 10:03:14;;;;;;;12.53;7.27;;;6.30;99.90;;;;;;5092360;28;20461;-69
2021/03/05 10:05:42;;;;;;;11.97;8.20;;;6.00;99.90;;;;;;5096817;28;20449;-70
2021/03/05 10:08:13;;;;;;;11.70;7.73;;;6.30;99.90;;;;;;5091893;28;20458;-70
2021/03/05 10:11:06;;;;;;;12.80;7.30;;;6.30;1.00;;;;;;5092136;28;20444;-70
2021/03/05 10:13:54;;;;;;;11.53;6.53;;;6.20;99.90;;;;;;5089823;28;20437;-70
2021/03/05 10:16:23;;;;;;;12.70;8.30;;;6.60;1.00;;;;;;5088216;28;20440;-69
2021/03/05 10:18:51;;;;;;;13.80;7.67;;;6.60;1.00;;;;;;5088950;28;20484;-68
2021/03/05 10:21:19;;;;;;;13.43;7.53;;;6.80;1.00;;;;;;5091470;28;20889;-68
2021/03/05 10:23:46;;;;;;;11.90;7.97;;;6.70;93.90;;;;;;5090518;28;20444;-70
2021/03/05 10:26:14;;;;;;;12.80;7.47;;;6.50;99.90;;;;;;5090933;28;20472;-69
2021/03/05 10:28:40;;;;;;;11.77;7.27;;;6.50;1.00;;;;;;5089710;28;20461;-69
2021/03/05 10:31:08;;;;;;;10.33;6.87;;;6.80;1.00;;;;;;5090754;28;20444;-68
2021/03/05 10:33:36;;;;;;;11.30;6.43;;;6.70;1.00;;;;;;5091552;28;20484;-69
2021/03/05 10:36:02;;;;;;;13.40;7.00;;;6.60;99.90;;;;;;5091015;28;20846;-70
2021/03/05 10:38:29;;;;;;;13.90;7.53;;;6.70;1.00;;;;;;5091282;28;20483;-72
2021/03/05 10:40:55;;;;;;;10.13;6.77;;;6.90;1.00;;;;;;5089306;28;20483;-70
2021/03/05 10:43:22;;;;;;;11.20;7.33;;;6.60;99.90;;;;;;5091170;28;20536;-70
2021/03/05 10:45:48;;;;;;;9.23;6.30;;;6.80;1.00;;;;;;5090075;28;20800;-70
2021/03/05 10:48:16;;;;;;;10.23;6.60;;;7.00;1.00;;;;;;5090190;28;20472;-70
2021/03/05 10:50:42;;;;;;;11.20;7.67;;;7.10;1.00;;;;;;5090923;28;21174;-71
2021/03/05 10:53:08;;;;;;;14.20;6.87;;;6.80;1.00;;;;;;5090129;28;20544;-70
2021/03/05 10:55:35;;;;;;;11.90;7.47;;;6.80;99.90;;;;;;5091046;28;20568;-71
2021/03/05 10:58:02;;;;;;;16.60;8.00;;;6.80;49.40;;;;;;5090523;28;20529;-71
2021/03/05 11:00:29;;;;;;;10.67;7.23;;;6.30;1.00;;;;;;5090427;28;20990;-71
2021/03/05 11:02:55;;;;;;;12.33;7.90;;;6.40;1.00;;;;;;5090195;28;20532;-70
2021/03/05 11:05:23;;;;;;;11.33;6.73;;;6.50;99.90;;;;;;5091001;28;20476;-70
2021/03/05 11:07:51;;;;;;;14.00;8.43;;;6.60;99.90;;;;;;5090199;28;20448;-69
2021/03/05 11:10:17;;;;;;;12.80;7.60;;;7.00;46.90;;;;;;5089559;28;20452;-69
2021/03/05 11:12:43;;;;;;;10.67;7.23;;;7.00;99.90;;;;;;5091194;28;20449;-74
2021/03/05 11:15:11;;;;;;;16.90;8.33;;;7.10;99.90;;;;;;5088927;28;20456;-70
2021/03/05 11:17:37;;;;;;;12.10;7.33;;;7.40;99.90;;;;;;5091038;28;20503;-71
2021/03/05 11:20:04;;;;;;;13.40;8.03;;;7.50;1.00;;;;;;5090690;28;20447;-71
2021/03/05 11:22:32;;;;;;;11.50;7.50;;;6.90;99.90;;;;;;5091332;28;20492;-71
2021/03/05 11:24:58;;;;;;;14.20;8.20;;;6.80;1.00;;;;;;5090616;28;20535;-70
2021/03/05 11:27:25;;;;;;;12.50;7.63;;;6.90;99.90;;;;;;5090738;28;21031;-73
2021/03/05 11:29:51;;;;;;;13.33;9.00;;;6.90;1.00;;;;;;5090563;28;20451;-72
2021/03/05 11:32:18;;;;;;;11.53;7.13;;;6.90;1.00;;;;;;5091458;28;20468;-73
2021/03/05 11:34:44;;;;;;;18.30;8.03;;;6.80;1.00;;;;;;5090142;28;20444;-70
2021/03/05 11:37:10;;;;;;;13.60;8.37;;;6.70;1.00;;;;;;5090604;28;20836;-70
2021/03/05 11:39:38;;;;;;;11.37;7.03;;;6.60;99.90;;;;;;5090614;28;20463;-69
2021/03/05 11:42:05;;;;;;;14.97;8.37;;;6.60;1.00;;;;;;5088974;28;20985;-69
2021/03/05 11:44:31;;;;;;;12.80;8.10;;;6.80;1.00;;;;;;5091347;28;20535;-69
2021/03/05 11:46:58;;;;;;;12.57;7.93;;;7.00;1.00;;;;;;5089291;28;21004;-69
2021/03/05 11:49:24;;;;;;;13.17;7.30;;;6.90;19.10;;;;;;5090325;28;20870;-69
2021/03/05 11:51:50;;;;;;;15.13;9.37;;;7.00;99.90;;;;;;5094168;28;20516;-70
2021/03/05 11:54:17;;;;;;;12.20;8.57;;;6.80;99.90;;;;;;5094700;28;20448;-69
2021/03/05 11:56:44;;;;;;;17.07;8.70;;;6.70;99.90;;;;;;5090992;28;20509;-68
2021/03/05 11:59:10;;;;;;;14.27;8.53;;;6.60;1.00;;;;;;5089594;28;20480;-68
2021/03/05 12:01:37;;;;;;;18.33;9.33;;;6.70;1.00;;;;;;5090024;28;20574;-70
2021/03/05 12:04:04;;;;;;;13.80;7.50;;;6.80;1.00;;;;;;5089478;28;20532;-69
2021/03/05 12:06:30;;;;;;;12.50;7.43;;;6.90;99.90;;;;;;5090494;28;20528;-69
2021/03/05 12:08:56;;;;;;;19.33;8.00;;;6.60;1.00;;;;;;5089045;28;20951;-71
2021/03/05 12:11:23;;;;;;;14.10;7.60;;;6.80;1.00;;;;;;5090434;28;20444;-72
2021/03/05 12:13:50;;;;;;;13.67;7.90;;;6.80;99.90;;;;;;5090483;28;20535;-72
2021/03/05 12:16:17;;;;;;;15.30;7.67;;;6.60;80.80;;;;;;5090609;28;20525;-72
2021/03/05 12:18:43;;;;;;;12.33;7.10;;;6.60;99.90;;;;;;5090623;28;20483;-71
2021/03/05 12:21:10;;;;;;;13.17;7.67;;;6.70;99.90;;;;;;5091994;28;20468;-72
2021/03/05 12:23:37;;;;;;;12.53;8.20;;;6.70;37.70;;;;;;5094180;28;20539;-72
2021/03/05 12:26:04;;;;;;;13.00;7.03;;;7.10;99.90;;;;;;5093478;28;20448;-71
2021/03/05 12:28:30;;;;;;;12.20;8.53;;;6.90;1.00;;;;;;5093776;28;20488;-72
2021/03/05 12:30:58;;;;;;;11.80;7.23;;;6.70;12.20;;;;;;5093854;28;20471;-72
2021/03/05 12:33:24;;;;;;;11.40;7.33;;;6.90;99.90;;;;;;5094296;28;20444;-72
2021/03/05 12:35:51;;;;;;;12.60;7.77;;;7.00;1.00;;;;;;5093870;28;20489;-72
2021/03/05 12:38:18;;;;;;;14.47;7.70;;;7.10;1.00;;;;;;5093938;28;20479;-72
2021/03/05 12:40:44;;;;;;;14.40;7.90;;;7.00;1.00;;;;;;5093972;28;20648;-72
2021/03/05 12:43:10;;;;;;;11.27;7.50;;;7.10;1.00;;;;;;5093753;28;20535;-72
2021/03/05 12:45:37;;;;;;;10.80;7.60;;;7.20;1.00;;;;;;5094056;28;20476;-71
2021/03/05 12:48:05;;;;;;;12.87;7.17;;;7.20;1.00;;;;;;5092624;28;20447;-71
2021/03/05 12:50:32;;;;;;;15.20;8.83;;;7.00;1.00;;;;;;5092970;28;20489;-72
2021/03/05 12:52:58;;;;;;;10.27;7.13;;;7.20;1.00;;;;;;5092529;28;21016;-73
2021/03/05 12:55:40;;;;;;;10.50;6.97;;;7.30;1.00;;;;;;5093601;28;20495;-72